Chariton, Missouri
Current Conditions -  °F | °C
As of 11:30 PM on Wednesday 26 Nov 2014 (Local Time) from KTVK Reporting Station
Overcast Overcast  
Wind Chill: 19°   Ceiling: 800
Heat Index: 28°   Visibility: 10mi
Dew Point: 28°   Wind: 10mph
Humidity: 100%   Direction: 320°NW
Pressure: 30.32"   Gusts: NA
Location:  40.5649°N, 92.6355°W
Report Text: KTVK 270530Z AUTO 32009KT 10SM OVC008 M02/M02 A3032 RMK AO2
Loading
Personal Weather Stations






























Interactive Weather Map New forecast layout! Learn more

10-Day Weather Forecast

Advertisements
Track Severe Weather on mobile